createdAt,value
2022-08-03T00:02:37.784Z,99.90
2022-08-03T00:05:25.903Z,99.90
2022-08-03T00:08:14.032Z,99.90
2022-08-03T00:11:07.953Z,99.90
2022-08-03T00:13:56.075Z,99.90
2022-08-03T00:16:44.174Z,99.90
2022-08-03T00:19:33.779Z,99.90
2022-08-03T00:22:21.913Z,99.90
2022-08-03T00:25:12.214Z,99.90
2022-08-03T00:28:00.327Z,99.90
2022-08-03T00:30:48.548Z,99.90
2022-08-03T00:33:59.512Z,99.90
2022-08-03T00:36:47.696Z,99.90
2022-08-03T00:39:35.831Z,99.90
2022-08-03T00:42:23.960Z,99.90
2022-08-03T00:45:17.075Z,99.90
2022-08-03T00:48:19.463Z,99.90
2022-08-03T00:51:16.186Z,99.90
2022-08-03T00:54:06.108Z,99.90
2022-08-03T00:56:59.461Z,99.90
2022-08-03T00:59:48.647Z,99.90
2022-08-03T01:02:37.184Z,99.90
2022-08-03T01:05:26.139Z,99.90
2022-08-03T01:08:24.036Z,99.90
2022-08-03T01:11:20.016Z,99.90
2022-08-03T01:14:19.392Z,99.90
2022-08-03T01:17:15.835Z,99.90
2022-08-03T01:20:09.120Z,99.90
2022-08-03T01:23:11.590Z,99.90
2022-08-03T01:26:14.207Z,99.90
2022-08-03T01:29:24.272Z,99.90
2022-08-03T01:32:59.818Z,99.90
2022-08-03T01:35:33.264Z,99.90
2022-08-03T01:38:30.342Z,99.90
2022-08-03T01:41:23.539Z,99.90
2022-08-03T01:44:29.918Z,99.90
2022-08-03T01:47:21.992Z,99.90
2022-08-03T01:50:12.970Z,99.90
2022-08-03T01:53:01.509Z,99.90
2022-08-03T01:55:53.404Z,99.90
2022-08-03T01:58:59.740Z,99.90
2022-08-03T02:02:27.683Z,99.90
2022-08-03T02:04:59.572Z,99.90
2022-08-03T02:07:49.834Z,99.90
2022-08-03T02:10:40.239Z,99.90
2022-08-03T02:13:29.927Z,99.90
2022-08-03T02:16:19.140Z,99.90
2022-08-03T02:19:10.815Z,99.90
2022-08-03T02:22:01.918Z,99.90
2022-08-03T02:24:51.246Z,99.90
2022-08-03T02:27:44.091Z,99.90
2022-08-03T02:30:38.532Z,99.90
2022-08-03T02:33:29.446Z,99.90
2022-08-03T02:36:21.431Z,99.90
2022-08-03T02:39:16.851Z,99.90
2022-08-03T02:42:08.688Z,99.90
2022-08-03T02:44:59.776Z,99.90
2022-08-03T02:47:54.100Z,99.90
2022-08-03T02:50:45.422Z,99.90
2022-08-03T02:53:34.483Z,99.90
2022-08-03T02:56:25.380Z,99.90
2022-08-03T02:59:14.689Z,99.90
2022-08-03T03:02:04.081Z,99.90
2022-08-03T03:05:52.269Z,99.90
2022-08-03T03:08:02.860Z,99.90
2022-08-03T03:10:53.250Z,99.90
2022-08-03T03:13:46.106Z,99.90
2022-08-03T03:16:35.088Z,99.90
2022-08-03T03:19:23.890Z,99.90
2022-08-03T03:22:13.599Z,99.90
2022-08-03T03:25:02.214Z,99.90
2022-08-03T03:27:51.032Z,99.90
2022-08-03T03:30:40.491Z,99.90
2022-08-03T03:33:28.849Z,99.90
2022-08-03T03:36:18.422Z,99.90
2022-08-03T03:39:15.235Z,99.90
2022-08-03T03:42:04.453Z,99.90
2022-08-03T03:44:52.622Z,99.90
2022-08-03T03:47:42.396Z,99.90
2022-08-03T03:50:31.842Z,99.90
2022-08-03T03:53:19.934Z,99.90
2022-08-03T03:56:08.058Z,99.90
2022-08-03T03:58:56.271Z,99.90
2022-08-03T04:01:44.469Z,99.90
2022-08-03T04:04:51.809Z,99.90
2022-08-03T04:08:09.643Z,99.90
2022-08-03T04:11:04.817Z,99.90
2022-08-03T04:13:56.787Z,99.90
2022-08-03T04:16:52.691Z,99.90
2022-08-03T04:19:45.974Z,99.90
2022-08-03T04:22:35.426Z,99.90
2022-08-03T04:25:26.389Z,99.90
2022-08-03T04:28:30.899Z,99.90
2022-08-03T04:31:24.024Z,99.90
2022-08-03T04:34:12.294Z,99.90
2022-08-03T04:37:07.078Z,99.90
2022-08-03T04:40:00.161Z,99.90
2022-08-03T04:42:49.815Z,99.90
2022-08-03T04:45:38.219Z,99.90
2022-08-03T04:48:26.592Z,99.90
2022-08-03T04:51:15.196Z,99.90
2022-08-03T04:54:04.719Z,99.90
2022-08-03T04:56:52.784Z,99.90
2022-08-03T04:59:40.992Z,99.90
2022-08-03T05:02:29.109Z,99.90
2022-08-03T05:05:17.260Z,99.90
2022-08-03T05:08:11.169Z,99.90
2022-08-03T05:11:00.710Z,99.90
2022-08-03T05:13:49.171Z,99.90
2022-08-03T05:16:37.223Z,99.90
2022-08-03T05:19:25.337Z,99.90
2022-08-03T05:22:13.467Z,99.90
2022-08-03T05:25:02.273Z,99.90
2022-08-03T05:27:51.685Z,99.90
2022-08-03T05:30:39.772Z,99.90
2022-08-03T05:33:27.787Z,99.90
2022-08-03T05:36:15.900Z,99.90
2022-08-03T05:39:04.112Z,99.90
2022-08-03T05:41:52.153Z,99.90
2022-08-03T05:44:42.211Z,99.90
2022-08-03T05:47:30.301Z,99.90
2022-08-03T05:50:19.925Z,99.90
2022-08-03T05:53:07.970Z,99.90
2022-08-03T05:56:02.092Z,99.90
2022-08-03T05:59:16.357Z,99.90
2022-08-03T06:02:10.973Z,99.90
2022-08-03T06:04:59.030Z,99.90
2022-08-03T06:07:47.508Z,99.90
2022-08-03T06:10:38.295Z,99.90
2022-08-03T06:13:26.603Z,99.90
2022-08-03T06:16:14.733Z,99.90
2022-08-03T06:19:05.178Z,99.90
2022-08-03T06:21:53.355Z,99.90
2022-08-03T06:24:41.573Z,99.90
2022-08-03T06:27:41.385Z,99.90
2022-08-03T06:30:29.543Z,99.90
2022-08-03T06:33:17.703Z,99.90
2022-08-03T06:36:07.639Z,99.90
2022-08-03T06:38:55.672Z,99.90
2022-08-03T06:41:44.778Z,99.90
2022-08-03T06:44:33.169Z,99.90
2022-08-03T06:47:21.207Z,99.90
2022-08-03T06:50:14.296Z,99.90
2022-08-03T06:53:07.179Z,99.90
2022-08-03T06:55:55.477Z,99.90
2022-08-03T06:58:43.580Z,99.90
2022-08-03T07:01:34.831Z,99.90
2022-08-03T07:04:22.938Z,99.90
2022-08-03T07:07:10.968Z,99.90
2022-08-03T07:10:00.333Z,99.90
2022-08-03T07:12:55.668Z,99.90
2022-08-03T07:15:55.374Z,99.90
2022-08-03T07:18:44.420Z,99.30
2022-08-03T07:21:32.456Z,98.70
2022-08-03T07:24:20.537Z,98.50
2022-08-03T07:27:10.195Z,98.50
2022-08-03T07:29:59.268Z,98.10
2022-08-03T07:32:50.399Z,98.10
2022-08-03T07:35:39.016Z,98.00
2022-08-03T07:38:27.047Z,97.70
2022-08-03T07:41:15.095Z,96.70
2022-08-03T07:44:04.624Z,96.30
2022-08-03T07:46:52.833Z,96.10
2022-08-03T07:49:42.033Z,96.00
2022-08-03T07:52:47.949Z,95.60
2022-08-03T07:55:36.132Z,95.40
2022-08-03T07:58:24.582Z,95.10
2022-08-03T08:01:14.869Z,94.70
2022-08-03T08:04:03.330Z,94.20
2022-08-03T08:06:51.375Z,94.10
2022-08-03T08:09:39.438Z,92.90
2022-08-03T08:12:27.477Z,92.30
2022-08-03T08:15:15.622Z,92.10
2022-08-03T08:18:05.021Z,90.90
2022-08-03T08:20:53.070Z,90.70
2022-08-03T08:23:41.936Z,89.70
2022-08-03T08:26:32.316Z,87.00
2022-08-03T08:29:23.115Z,87.80
2022-08-03T08:32:13.207Z,85.10
2022-08-03T08:35:02.617Z,85.80
2022-08-03T08:37:51.480Z,85.50
2022-08-03T08:40:39.619Z,85.20
2022-08-03T08:43:28.728Z,83.60
2022-08-03T08:46:22.980Z,84.70
2022-08-03T08:49:14.526Z,83.90
2022-08-03T08:52:04.938Z,84.40
2022-08-03T08:55:20.360Z,81.40
2022-08-03T08:58:12.996Z,81.70
2022-08-03T09:01:09.175Z,83.30
2022-08-03T09:03:38.000Z,83.60
2022-08-03T09:06:06.479Z,83.00
2022-08-03T09:08:36.140Z,82.90
2022-08-03T09:11:04.664Z,83.10
2022-08-03T09:13:33.782Z,82.40
2022-08-03T09:16:15.904Z,81.40
2022-08-03T09:18:45.388Z,81.60
2022-08-03T09:21:34.963Z,81.70
2022-08-03T09:24:10.330Z,82.10
2022-08-03T09:26:53.946Z,81.30
2022-08-03T09:29:23.300Z,81.20
2022-08-03T09:32:02.465Z,81.10
2022-08-03T09:34:30.852Z,80.90
2022-08-03T09:36:59.267Z,81.20
2022-08-03T09:39:41.802Z,80.00
2022-08-03T09:42:11.476Z,79.90
2022-08-03T09:44:44.734Z,79.50
2022-08-03T09:47:13.981Z,79.90
2022-08-03T09:49:43.325Z,79.90
2022-08-03T09:52:39.352Z,78.90
2022-08-03T09:55:23.391Z,79.20
2022-08-03T09:58:06.895Z,79.50
2022-08-03T10:00:54.959Z,78.30
2022-08-03T10:03:23.408Z,77.40
2022-08-03T10:05:53.027Z,77.00
2022-08-03T10:08:24.881Z,76.10
2022-08-03T10:10:58.722Z,76.10
2022-08-03T10:13:26.792Z,76.60
2022-08-03T10:16:22.391Z,75.10
2022-08-03T10:18:56.577Z,75.70
2022-08-03T10:21:24.670Z,76.10
2022-08-03T10:23:54.534Z,75.50
2022-08-03T10:26:26.143Z,75.20
2022-08-03T10:28:57.346Z,75.10
2022-08-03T10:31:25.783Z,74.30
2022-08-03T10:33:59.079Z,74.30
2022-08-03T10:36:31.356Z,74.30
2022-08-03T10:39:01.838Z,74.00
2022-08-03T10:41:35.362Z,73.80
2022-08-03T10:44:06.370Z,74.10
2022-08-03T10:46:36.083Z,74.50
2022-08-03T10:49:04.626Z,73.70
2022-08-03T10:51:33.204Z,73.80
2022-08-03T10:54:01.710Z,73.10
2022-08-03T10:57:13.485Z,73.20
2022-08-03T11:00:00.399Z,73.80
2022-08-03T11:03:06.378Z,73.30
2022-08-03T11:05:37.139Z,72.70
2022-08-03T11:08:21.381Z,72.60
2022-08-03T11:10:51.586Z,72.40
2022-08-03T11:13:22.656Z,72.50
2022-08-03T11:15:53.991Z,72.60
2022-08-03T11:18:30.289Z,73.00
2022-08-03T11:20:59.743Z,72.90
2022-08-03T11:24:02.454Z,72.90
2022-08-03T11:26:35.283Z,71.80
2022-08-03T11:29:29.950Z,71.30
2022-08-03T11:31:58.692Z,72.10
2022-08-03T11:34:27.045Z,71.90
2022-08-03T11:37:21.566Z,72.70
2022-08-03T11:39:52.992Z,73.30
2022-08-03T11:42:39.970Z,71.30
2022-08-03T11:45:11.039Z,71.30
2022-08-03T11:47:50.736Z,71.00
2022-08-03T11:50:21.391Z,69.60
2022-08-03T11:52:50.934Z,70.10
2022-08-03T11:55:22.080Z,70.40
2022-08-03T11:59:17.557Z,69.00
2022-08-03T12:00:40.641Z,69.30
2022-08-03T12:03:10.767Z,69.40
2022-08-03T12:05:48.077Z,69.00
2022-08-03T12:08:31.291Z,68.60
2022-08-03T12:11:01.468Z,69.80
2022-08-03T12:13:56.721Z,68.90
2022-08-03T12:16:29.542Z,69.20
2022-08-03T12:18:58.519Z,68.80
2022-08-03T12:21:26.954Z,68.00
2022-08-03T12:24:00.232Z,67.30
2022-08-03T12:26:28.923Z,66.70
2022-08-03T12:28:57.772Z,67.10
2022-08-03T12:31:25.830Z,67.50
2022-08-03T12:34:02.082Z,67.00
2022-08-03T12:36:31.660Z,66.00
2022-08-03T12:39:01.535Z,65.30
2022-08-03T12:41:31.707Z,66.10
2022-08-03T12:43:59.964Z,65.90
2022-08-03T12:46:32.788Z,65.90
2022-08-03T12:49:13.493Z,65.80
2022-08-03T12:51:58.160Z,65.20
2022-08-03T12:54:27.905Z,62.70
2022-08-03T12:57:00.563Z,60.60
2022-08-03T12:59:35.141Z,58.00
2022-08-03T13:02:09.431Z,56.00
2022-08-03T13:04:39.295Z,52.60
2022-08-03T13:07:14.262Z,47.50
2022-08-03T13:09:47.871Z,47.70
2022-08-03T13:12:17.336Z,44.90
2022-08-03T13:14:47.057Z,43.70
2022-08-03T13:17:16.750Z,42.30
2022-08-03T13:19:47.360Z,40.40
2022-08-03T13:22:17.414Z,39.10
2022-08-03T13:24:46.743Z,38.40
2022-08-03T13:28:02.565Z,37.30
2022-08-03T13:30:04.021Z,37.00
2022-08-03T13:32:31.980Z,36.10
2022-08-03T13:35:02.520Z,35.40
2022-08-03T13:37:32.210Z,34.90
2022-08-03T13:40:02.439Z,34.40
2022-08-03T13:42:32.618Z,34.70
2022-08-03T13:45:01.898Z,33.80
2022-08-03T13:47:30.323Z,33.40
2022-08-03T13:50:00.758Z,33.10
2022-08-03T13:52:33.926Z,33.20
2022-08-03T13:55:02.316Z,32.80
2022-08-03T13:58:11.739Z,32.60
2022-08-03T14:00:26.339Z,32.70
2022-08-03T14:03:13.652Z,32.70
2022-08-03T14:05:43.074Z,32.80
2022-08-03T14:08:12.866Z,33.30
2022-08-03T14:10:43.582Z,34.50
2022-08-03T14:13:12.730Z,34.90
2022-08-03T14:15:50.107Z,36.60
2022-08-03T14:18:28.576Z,36.90
2022-08-03T14:21:05.944Z,39.00
2022-08-03T14:23:37.415Z,39.80
2022-08-03T14:26:05.790Z,39.60
2022-08-03T14:28:33.681Z,38.20
2022-08-03T14:31:02.869Z,36.50
2022-08-03T14:33:30.906Z,35.20
2022-08-03T14:35:58.808Z,34.30
2022-08-03T14:38:27.216Z,33.20
2022-08-03T14:40:56.596Z,32.00
2022-08-03T14:43:24.687Z,31.90
2022-08-03T14:45:53.878Z,31.50
2022-08-03T14:50:32.766Z,31.80
2022-08-03T14:51:31.786Z,32.10
2022-08-03T14:54:19.922Z,31.60
2022-08-03T14:57:10.728Z,31.00
2022-08-03T14:59:58.758Z,30.70
2022-08-03T15:02:46.836Z,30.10
2022-08-03T15:05:35.595Z,30.30
2022-08-03T15:08:24.829Z,30.70
2022-08-03T15:11:12.913Z,30.80
2022-08-03T15:14:06.082Z,30.90
2022-08-03T15:16:57.205Z,30.50
2022-08-03T15:20:03.517Z,30.80
2022-08-03T15:22:53.244Z,31.50
2022-08-03T15:26:32.242Z,33.00
2022-08-03T15:28:50.687Z,32.30
2022-08-03T15:31:40.219Z,31.70
2022-08-03T15:34:28.222Z,30.80
2022-08-03T15:37:16.750Z,31.30
2022-08-03T15:40:06.044Z,31.20
2022-08-03T15:42:54.095Z,31.00
2022-08-03T15:45:42.913Z,31.40
2022-08-03T15:48:32.383Z,31.30
2022-08-03T15:51:20.414Z,32.20
2022-08-03T15:54:08.551Z,32.80
2022-08-03T15:56:56.604Z,31.80
2022-08-03T15:59:44.652Z,32.10
2022-08-03T16:02:33.407Z,32.30
2022-08-03T16:05:22.842Z,31.30
2022-08-03T16:08:13.804Z,30.90
2022-08-03T16:11:02.304Z,31.50
2022-08-03T16:14:12.837Z,30.90
2022-08-03T16:16:58.343Z,30.70
2022-08-03T16:19:46.340Z,30.80
2022-08-03T16:22:41.538Z,31.90
2022-08-03T16:25:31.268Z,32.20
2022-08-03T16:28:20.061Z,31.40
2022-08-03T16:31:09.070Z,30.80
2022-08-03T16:33:57.682Z,30.70
2022-08-03T16:36:46.855Z,31.10
2022-08-03T16:39:36.549Z,30.70
2022-08-03T16:42:24.647Z,30.80
2022-08-03T16:45:12.800Z,31.50
2022-08-03T16:48:05.227Z,30.70
2022-08-03T16:50:54.555Z,32.20
2022-08-03T16:54:05.776Z,31.90
2022-08-03T16:56:51.961Z,31.40
2022-08-03T16:59:41.683Z,31.40
2022-08-03T17:02:31.526Z,31.50
2022-08-03T17:05:20.223Z,31.40
2022-08-03T17:08:10.641Z,30.50
2022-08-03T17:11:01.132Z,29.80
2022-08-03T17:13:51.239Z,30.30
2022-08-03T17:16:39.824Z,32.30
2022-08-03T17:19:41.646Z,34.70
2022-08-03T17:22:38.019Z,35.30
2022-08-03T17:26:01.577Z,36.80
2022-08-03T17:28:51.951Z,38.80
2022-08-03T17:31:48.816Z,38.10
2022-08-03T17:34:39.177Z,37.70
2022-08-03T17:37:57.618Z,35.90
2022-08-03T17:40:38.003Z,35.30
2022-08-03T17:44:13.053Z,34.70
2022-08-03T17:46:35.681Z,34.10
2022-08-03T17:49:31.855Z,33.00
2022-08-03T17:52:29.187Z,32.30
2022-08-03T17:58:45.659Z,35.70
2022-08-03T18:02:12.255Z,36.60
2022-08-03T18:05:15.935Z,39.80
2022-08-03T18:08:11.009Z,42.00
2022-08-03T18:11:03.479Z,44.60
2022-08-03T18:14:16.257Z,46.10
2022-08-03T18:17:10.538Z,47.10
2022-08-03T18:20:03.211Z,48.80
2022-08-03T18:23:00.624Z,49.20
2022-08-03T18:25:58.020Z,49.10
2022-08-03T18:28:49.235Z,49.60
2022-08-03T18:32:02.530Z,50.80
2022-08-03T18:34:53.783Z,51.70
2022-08-03T18:37:52.263Z,53.50
2022-08-03T18:40:42.749Z,53.40
2022-08-03T18:43:47.688Z,54.90
2022-08-03T18:47:16.215Z,55.40
2022-08-03T18:50:13.329Z,56.50
2022-08-03T18:53:16.346Z,57.30
2022-08-03T18:56:14.195Z,58.10
2022-08-03T18:59:08.279Z,59.20
2022-08-03T19:02:04.374Z,59.70
2022-08-03T19:04:55.403Z,60.90
2022-08-03T19:08:00.094Z,61.50
2022-08-03T19:11:00.598Z,62.20
2022-08-03T19:13:51.667Z,63.10
2022-08-03T19:16:42.209Z,64.10
2022-08-03T19:19:43.622Z,64.70
2022-08-03T19:22:34.203Z,65.40
2022-08-03T19:25:34.534Z,66.10
2022-08-03T19:28:30.115Z,66.90
2022-08-03T19:31:21.468Z,67.70
2022-08-03T19:34:19.517Z,68.60
2022-08-03T19:37:14.613Z,69.40
2022-08-03T19:40:03.591Z,70.20
2022-08-03T19:42:55.644Z,71.00
2022-08-03T19:49:02.194Z,72.20
2022-08-03T19:52:02.041Z,73.20
2022-08-03T19:54:54.673Z,73.70
2022-08-03T19:57:49.382Z,74.50
2022-08-03T20:00:40.069Z,75.20
2022-08-03T20:03:43.302Z,76.30
2022-08-03T20:06:33.065Z,76.90
2022-08-03T20:09:21.737Z,77.60
2022-08-03T20:12:11.661Z,78.20
2022-08-03T20:15:01.104Z,79.20
2022-08-03T20:17:56.662Z,79.00
2022-08-03T20:20:50.970Z,79.40
2022-08-03T20:24:01.687Z,80.70
2022-08-03T20:26:53.493Z,81.00
2022-08-03T20:30:06.872Z,81.80
2022-08-03T20:32:54.940Z,83.40
2022-08-03T20:35:45.765Z,83.80
2022-08-03T20:38:34.033Z,84.50
2022-08-03T20:41:33.265Z,85.60
2022-08-03T20:44:25.980Z,86.80
2022-08-03T20:47:23.667Z,88.20
2022-08-03T20:50:13.003Z,89.00
2022-08-03T20:53:05.967Z,90.00
2022-08-03T20:56:01.802Z,90.50
2022-08-03T20:58:52.216Z,91.50
2022-08-03T21:01:40.309Z,92.90
2022-08-03T21:04:32.552Z,93.80
2022-08-03T21:07:23.682Z,94.70
2022-08-03T21:10:15.479Z,95.50
2022-08-03T21:12:55.767Z,34.80
2022-08-03T21:13:02.897Z,71.60
2022-08-03T21:13:16.863Z,96.50
2022-08-03T21:16:13.554Z,97.00
2022-08-03T21:19:04.711Z,97.50
2022-08-03T21:21:54.565Z,97.90
2022-08-03T21:24:44.585Z,98.30
2022-08-03T21:27:33.144Z,98.70
2022-08-03T21:30:22.711Z,99.60
2022-08-03T21:33:12.151Z,99.90
2022-08-03T21:36:01.847Z,99.90
2022-08-03T21:38:56.100Z,99.90
2022-08-03T21:41:45.090Z,99.90
2022-08-03T21:44:33.255Z,99.90
2022-08-03T21:47:24.451Z,99.90
2022-08-03T21:50:14.825Z,99.90
2022-08-03T21:53:04.236Z,99.90
2022-08-03T21:55:57.516Z,99.90
2022-08-03T21:58:51.318Z,99.90
2022-08-03T22:01:43.432Z,99.90
2022-08-03T22:04:50.681Z,99.90
2022-08-03T22:07:43.505Z,99.90
2022-08-03T22:10:31.697Z,99.90
2022-08-03T22:13:44.171Z,99.90
2022-08-03T22:16:28.322Z,99.90
2022-08-03T22:19:16.383Z,99.90
2022-08-03T22:22:07.548Z,99.90
2022-08-03T22:25:00.455Z,99.90
2022-08-03T22:27:48.803Z,99.90
2022-08-03T22:30:37.765Z,99.90
2022-08-03T22:33:27.660Z,99.90
2022-08-03T22:36:18.905Z,99.90
2022-08-03T22:39:07.168Z,99.90
2022-08-03T22:41:57.886Z,99.90
2022-08-03T22:44:47.267Z,99.90
2022-08-03T22:47:37.031Z,99.90
2022-08-03T22:50:31.715Z,99.90
2022-08-03T22:53:22.662Z,99.90
2022-08-03T22:56:11.342Z,99.90
2022-08-03T22:59:00.726Z,99.90
2022-08-03T23:01:50.909Z,99.90
2022-08-03T23:04:42.032Z,99.90
2022-08-03T23:07:33.727Z,99.90
2022-08-03T23:10:24.717Z,99.90
2022-08-03T23:13:14.601Z,99.90
2022-08-03T23:16:07.122Z,99.90
2022-08-03T23:18:55.406Z,99.90
2022-08-03T23:22:00.062Z,99.90
2022-08-03T23:24:52.002Z,99.90
2022-08-03T23:27:41.279Z,99.90
2022-08-03T23:30:31.508Z,99.90
2022-08-03T23:33:22.475Z,99.90
2022-08-03T23:36:30.431Z,99.90
2022-08-03T23:39:19.926Z,99.90
2022-08-03T23:42:08.456Z,99.90
2022-08-03T23:44:59.476Z,99.90
2022-08-03T23:47:53.700Z,99.90
2022-08-03T23:50:45.776Z,99.90
2022-08-03T23:53:41.609Z,99.90
2022-08-03T23:56:37.910Z,99.90
2022-08-03T23:59:33.407Z,99.90
